createdAt,value
2018-07-03T00:00:32.598Z,1007.59
2018-07-03T00:01:32.543Z,1007.52
2018-07-03T00:02:32.517Z,1007.54
2018-07-03T00:03:32.509Z,1007.49
2018-07-03T00:04:32.454Z,1007.52
2018-07-03T00:05:32.448Z,1007.53
2018-07-03T00:06:32.388Z,1007.49
2018-07-03T00:07:32.348Z,1007.52
2018-07-03T00:08:32.316Z,1007.50
2018-07-03T00:09:32.282Z,1007.49
2018-07-03T00:10:32.248Z,1007.47
2018-07-03T00:11:32.232Z,1007.50
2018-07-03T00:12:32.192Z,1007.48
2018-07-03T00:13:32.353Z,1007.44
2018-07-03T00:14:32.127Z,1007.48
2018-07-03T00:15:32.101Z,1007.48
2018-07-03T00:16:32.063Z,1007.43
2018-07-03T00:17:32.016Z,1007.49
2018-07-03T00:18:31.986Z,1007.45
2018-07-03T00:19:31.958Z,1007.44
2018-07-03T00:20:31.924Z,1007.39
2018-07-03T00:21:32.681Z,1007.38
2018-07-03T00:22:31.852Z,1007.39
2018-07-03T00:23:31.819Z,1007.40
2018-07-03T00:24:31.787Z,1007.37
2018-07-03T00:25:31.753Z,1007.34
2018-07-03T00:26:31.718Z,1007.35
2018-07-03T00:27:32.023Z,1007.34
2018-07-03T00:28:31.651Z,1007.26
2018-07-03T00:29:31.633Z,1007.35
2018-07-03T00:30:31.618Z,1007.29
2018-07-03T00:31:31.561Z,1007.31
2018-07-03T00:32:31.527Z,1007.34
2018-07-03T00:33:31.490Z,1007.31
2018-07-03T00:34:31.455Z,1007.28
2018-07-03T00:35:31.443Z,1007.34
2018-07-03T00:36:31.387Z,1007.30
2018-07-03T00:37:31.363Z,1007.25
2018-07-03T00:38:31.322Z,1007.29
2018-07-03T00:39:31.322Z,1007.26
2018-07-03T00:40:31.288Z,1007.27
2018-07-03T00:41:31.233Z,1007.26
2018-07-03T00:42:31.189Z,1007.30
2018-07-03T00:43:31.158Z,1007.26
2018-07-03T00:44:31.170Z,1007.25
2018-07-03T00:45:31.127Z,1007.28
2018-07-03T00:46:31.678Z,1007.29
2018-07-03T00:47:31.027Z,1007.29
2018-07-03T00:48:30.999Z,1007.21
2018-07-03T00:49:30.956Z,1007.26
2018-07-03T00:50:30.936Z,1007.23
2018-07-03T00:51:30.891Z,1007.25
2018-07-03T00:52:30.855Z,1007.22
2018-07-03T00:53:30.822Z,1007.25
2018-07-03T00:54:30.794Z,1007.24
2018-07-03T00:55:30.810Z,1007.20
2018-07-03T00:56:30.757Z,1007.20
2018-07-03T00:57:30.700Z,1007.26
2018-07-03T00:58:30.655Z,1007.20
2018-07-03T00:59:30.678Z,1007.20
2018-07-03T01:00:30.603Z,1007.20
2018-07-03T01:01:30.601Z,1007.21
2018-07-03T01:02:30.569Z,1007.16
2018-07-03T01:03:30.504Z,1007.13
2018-07-03T01:04:30.462Z,1007.13
2018-07-03T01:05:30.421Z,1007.16
2018-07-03T01:06:30.420Z,1007.12
2018-07-03T01:07:30.365Z,1007.10
2018-07-03T01:08:30.328Z,1007.12
2018-07-03T01:09:30.296Z,1007.12
2018-07-03T01:10:30.259Z,1007.16
2018-07-03T01:11:30.277Z,1007.16
2018-07-03T01:12:30.199Z,1007.21
2018-07-03T01:13:30.162Z,1007.20
2018-07-03T01:14:30.121Z,1007.20
2018-07-03T01:15:30.090Z,1007.22
2018-07-03T01:16:30.086Z,1007.23
2018-07-03T01:17:30.022Z,1007.20
2018-07-03T01:18:29.991Z,1007.20
2018-07-03T01:19:29.969Z,1007.15
2018-07-03T01:20:29.921Z,1007.16
2018-07-03T01:21:29.896Z,1007.16
2018-07-03T01:22:29.849Z,1007.16
2018-07-03T01:23:29.822Z,1007.15
2018-07-03T01:24:29.817Z,1007.19
2018-07-03T01:25:29.755Z,1007.17
2018-07-03T01:26:29.719Z,1007.19
2018-07-03T01:27:29.686Z,1007.21
2018-07-03T01:28:29.652Z,1007.22
2018-07-03T01:29:29.645Z,1007.24
2018-07-03T01:30:29.616Z,1007.25
2018-07-03T01:31:29.583Z,1007.20
2018-07-03T01:32:29.525Z,1007.25
2018-07-03T01:33:29.491Z,1007.26
2018-07-03T01:34:29.475Z,1007.24
2018-07-03T01:35:29.416Z,1007.24
2018-07-03T01:36:29.395Z,1007.24
2018-07-03T01:37:29.347Z,1007.27
2018-07-03T01:38:29.319Z,1007.21
2018-07-03T01:39:29.285Z,1007.30
2018-07-03T01:40:29.261Z,1007.28
2018-07-03T01:41:29.216Z,1007.27
2018-07-03T01:42:29.190Z,1007.29
2018-07-03T01:43:29.149Z,1007.27
2018-07-03T01:44:29.113Z,1007.27
2018-07-03T01:45:29.089Z,1007.26
2018-07-03T01:46:29.045Z,1007.22
2018-07-03T01:47:29.031Z,1007.22
2018-07-03T01:48:28.983Z,1007.26
2018-07-03T01:49:28.954Z,1007.26
2018-07-03T01:50:28.931Z,1007.26
2018-07-03T01:51:28.906Z,1007.23
2018-07-03T01:52:28.875Z,1007.29
2018-07-03T01:53:28.811Z,1007.32
2018-07-03T01:54:28.776Z,1007.31
2018-07-03T01:55:28.744Z,1007.31
2018-07-03T01:56:28.731Z,1007.41
2018-07-03T01:57:28.674Z,1007.38
2018-07-03T01:58:28.645Z,1007.38
2018-07-03T01:59:28.609Z,1007.37
2018-07-03T02:00:28.577Z,1007.36
2018-07-03T02:01:28.539Z,1007.35
2018-07-03T02:02:28.508Z,1007.29
2018-07-03T02:03:28.538Z,1007.36
2018-07-03T02:04:28.438Z,1007.30
2018-07-03T02:05:28.409Z,1007.36
2018-07-03T02:06:28.392Z,1007.29
2018-07-03T02:07:28.340Z,1007.32
2018-07-03T02:08:28.336Z,1007.33
2018-07-03T02:09:28.271Z,1007.34
2018-07-03T02:10:28.250Z,1007.43
2018-07-03T02:11:28.211Z,1007.35
2018-07-03T02:12:28.166Z,1007.37
2018-07-03T02:13:28.146Z,1007.43
2018-07-03T02:14:28.101Z,1007.39
2018-07-03T02:15:28.065Z,1007.35
2018-07-03T02:16:28.033Z,1007.31
2018-07-03T02:17:28.003Z,1007.31
2018-07-03T02:18:27.967Z,1007.35
2018-07-03T02:19:27.935Z,1007.34
2018-07-03T02:20:27.906Z,1007.37
2018-07-03T02:21:27.863Z,1007.38
2018-07-03T02:22:27.829Z,1007.35
2018-07-03T02:23:27.801Z,1007.39
2018-07-03T02:24:27.755Z,1007.39
2018-07-03T02:25:27.726Z,1007.35
2018-07-03T02:26:27.686Z,1007.27
2018-07-03T02:27:27.667Z,1007.32
2018-07-03T02:28:27.623Z,1007.26
2018-07-03T02:29:27.586Z,1007.25
2018-07-03T02:30:27.553Z,1007.20
2018-07-03T02:31:27.515Z,1007.27
2018-07-03T02:32:27.493Z,1007.23
2018-07-03T02:33:27.447Z,1007.13
2018-07-03T02:34:27.429Z,1007.22
2018-07-03T02:35:27.382Z,1007.22
2018-07-03T02:36:27.380Z,1007.13
2018-07-03T02:37:27.314Z,1007.20
2018-07-03T02:38:27.283Z,1007.19
2018-07-03T02:39:27.249Z,1007.19
2018-07-03T02:40:27.204Z,1007.17
2018-07-03T02:41:27.174Z,1007.13
2018-07-03T02:42:27.154Z,1007.18
2018-07-03T02:43:27.107Z,1007.21
2018-07-03T02:44:27.068Z,1007.19
2018-07-03T02:45:27.038Z,1007.23
2018-07-03T02:46:27.011Z,1007.21
2018-07-03T02:47:26.967Z,1007.20
2018-07-03T02:48:26.930Z,1007.21
2018-07-03T02:49:26.898Z,1007.20
2018-07-03T02:50:26.860Z,1007.17
2018-07-03T02:51:26.826Z,1007.26
2018-07-03T02:52:26.849Z,1007.31
2018-07-03T02:53:26.756Z,1007.29
2018-07-03T02:54:26.720Z,1007.32
2018-07-03T02:55:26.693Z,1007.27
2018-07-03T02:56:26.651Z,1007.28
2018-07-03T02:57:26.619Z,1007.24
2018-07-03T02:58:26.585Z,1007.26
2018-07-03T02:59:26.558Z,1007.27
2018-07-03T03:00:26.524Z,1007.28
2018-07-03T03:01:26.479Z,1007.19
2018-07-03T03:02:26.444Z,1007.30
2018-07-03T03:03:26.408Z,1007.29
2018-07-03T03:04:26.375Z,1007.30
2018-07-03T03:05:26.355Z,1007.29
2018-07-03T03:06:26.313Z,1007.27
2018-07-03T03:07:26.270Z,1007.29
2018-07-03T03:08:26.267Z,1007.19
2018-07-03T03:09:26.202Z,1007.28
2018-07-03T03:10:26.165Z,1007.20
2018-07-03T03:11:26.152Z,1007.16
2018-07-03T03:12:26.097Z,1007.21
2018-07-03T03:13:26.134Z,1007.20
2018-07-03T03:14:26.037Z,1007.23
2018-07-03T03:15:25.990Z,1007.25
2018-07-03T03:16:25.962Z,1007.24
2018-07-03T03:17:25.953Z,1007.18
2018-07-03T03:18:25.910Z,1007.24
2018-07-03T03:19:25.853Z,1007.10
2018-07-03T03:20:25.823Z,1007.21
2018-07-03T03:21:25.783Z,1007.24
2018-07-03T03:22:25.779Z,1007.23
2018-07-03T03:23:25.711Z,1007.26
2018-07-03T03:24:25.676Z,1007.27
2018-07-03T03:25:25.671Z,1007.25
2018-07-03T03:26:25.631Z,1007.27
2018-07-03T03:27:25.570Z,1007.15
2018-07-03T03:28:25.932Z,1007.15
2018-07-03T03:29:25.525Z,1007.16
2018-07-03T03:30:25.473Z,1007.19
2018-07-03T03:31:25.435Z,1007.21
2018-07-03T03:32:25.400Z,1007.21
2018-07-03T03:33:25.365Z,1007.17
2018-07-03T03:34:25.329Z,1007.22
2018-07-03T03:35:25.303Z,1007.21
2018-07-03T03:36:25.264Z,1007.21
2018-07-03T03:37:25.226Z,1007.24
2018-07-03T03:38:25.249Z,1007.29
2018-07-03T03:39:25.159Z,1007.30
2018-07-03T03:40:25.127Z,1007.25
2018-07-03T03:41:25.087Z,1007.28
2018-07-03T03:42:25.055Z,1007.29
2018-07-03T03:43:25.017Z,1007.29
2018-07-03T03:44:24.979Z,1007.29
2018-07-03T03:45:24.943Z,1007.32
2018-07-03T03:46:24.907Z,1007.34
2018-07-03T03:47:24.887Z,1007.28
2018-07-03T03:48:24.836Z,1007.32
2018-07-03T03:49:24.808Z,1007.34
2018-07-03T03:50:24.768Z,1007.42
2018-07-03T03:51:24.745Z,1007.39
2018-07-03T03:52:24.699Z,1007.38
2018-07-03T03:53:24.690Z,1007.46
2018-07-03T03:54:24.640Z,1007.51
2018-07-03T03:55:24.598Z,1007.44
2018-07-03T03:56:24.560Z,1007.49
2018-07-03T03:57:24.522Z,1007.47
2018-07-03T03:58:24.489Z,1007.49
2018-07-03T03:59:24.460Z,1007.40
2018-07-03T04:00:24.431Z,1007.50
2018-07-03T04:01:24.391Z,1007.48
2018-07-03T04:02:24.350Z,1007.49
2018-07-03T04:03:24.317Z,1007.58
2018-07-03T04:04:24.928Z,1007.57
2018-07-03T04:05:24.248Z,1007.55
2018-07-03T04:06:24.213Z,1007.59
2018-07-03T04:07:24.181Z,1007.59
2018-07-03T04:08:24.140Z,1007.57
2018-07-03T04:09:24.103Z,1007.47
2018-07-03T04:10:24.073Z,1007.55
2018-07-03T04:11:24.038Z,1007.57
2018-07-03T04:12:24.002Z,1007.62
2018-07-03T04:13:23.966Z,1007.64
2018-07-03T04:14:23.940Z,1007.60
2018-07-03T04:15:23.895Z,1007.66
2018-07-03T04:16:23.862Z,1007.60
2018-07-03T04:17:23.829Z,1007.65
2018-07-03T04:18:23.799Z,1007.69
2018-07-03T04:19:23.758Z,1007.61
2018-07-03T04:20:23.727Z,1007.69
2018-07-03T04:21:23.696Z,1007.70
2018-07-03T04:22:23.670Z,1007.72
2018-07-03T04:23:23.624Z,1007.67
2018-07-03T04:24:23.585Z,1007.74
2018-07-03T04:25:23.556Z,1007.71
2018-07-03T04:26:23.517Z,1007.72
2018-07-03T04:27:23.484Z,1007.75
2018-07-03T04:28:23.484Z,1007.76
2018-07-03T04:29:23.420Z,1007.72
2018-07-03T04:30:23.382Z,1007.75
2018-07-03T04:31:23.350Z,1007.76
2018-07-03T04:32:23.317Z,1007.79
2018-07-03T04:33:23.282Z,1007.79
2018-07-03T04:34:23.259Z,1007.80
2018-07-03T04:35:23.216Z,1007.79
2018-07-03T04:36:23.180Z,1007.76
2018-07-03T04:37:23.139Z,1007.80
2018-07-03T04:38:23.111Z,1007.79
2018-07-03T04:39:23.082Z,1007.79
2018-07-03T04:40:23.042Z,1007.76
2018-07-03T04:41:23.067Z,1007.75
2018-07-03T04:42:22.971Z,1007.79
2018-07-03T04:43:22.940Z,1007.79
2018-07-03T04:44:22.915Z,1007.78
2018-07-03T04:45:22.868Z,1007.81
2018-07-03T04:46:22.836Z,1007.72
2018-07-03T04:47:22.808Z,1007.81
2018-07-03T04:48:22.769Z,1007.77
2018-07-03T04:49:22.733Z,1007.83
2018-07-03T04:50:22.737Z,1007.83
2018-07-03T04:51:22.672Z,1007.78
2018-07-03T04:52:23.540Z,1007.79
2018-07-03T04:53:22.815Z,1007.76
2018-07-03T04:54:22.566Z,1007.87
2018-07-03T04:55:22.536Z,1007.89
2018-07-03T04:56:22.499Z,1007.88
2018-07-03T04:57:22.467Z,1007.83
2018-07-03T04:58:22.433Z,1007.87
2018-07-03T04:59:22.404Z,1007.89
2018-07-03T05:00:22.674Z,1007.86
2018-07-03T05:01:22.368Z,1007.90
2018-07-03T05:02:22.307Z,1007.90
2018-07-03T05:03:22.274Z,1007.90
2018-07-03T05:04:22.237Z,1007.80
2018-07-03T05:05:22.203Z,1007.90
2018-07-03T05:06:22.198Z,1007.89
2018-07-03T05:07:22.138Z,1007.83
2018-07-03T05:08:22.105Z,1007.87
2018-07-03T05:09:22.066Z,1007.89
2018-07-03T05:10:22.043Z,1007.90
2018-07-03T05:11:22.011Z,1007.93
2018-07-03T05:12:21.970Z,1008.00
2018-07-03T05:13:21.946Z,1008.01
2018-07-03T05:14:21.917Z,1008.00
2018-07-03T05:15:21.874Z,1008.03
2018-07-03T05:16:21.842Z,1008.02
2018-07-03T05:17:21.859Z,1008.04
2018-07-03T05:18:21.777Z,1008.03
2018-07-03T05:19:21.749Z,1008.01
2018-07-03T05:20:21.716Z,1008.02
2018-07-03T05:21:21.680Z,1008.04
2018-07-03T05:22:21.650Z,1008.08
2018-07-03T05:23:21.637Z,1008.09
2018-07-03T05:24:21.587Z,1008.12
2018-07-03T05:25:21.552Z,1008.08
2018-07-03T05:26:21.517Z,1008.18
2018-07-03T05:27:21.491Z,1008.11
2018-07-03T05:28:21.455Z,1008.20
2018-07-03T05:29:21.418Z,1008.17
2018-07-03T05:30:21.391Z,1008.19
2018-07-03T05:31:21.414Z,1008.16
2018-07-03T05:32:21.327Z,1008.16
2018-07-03T05:33:21.300Z,1008.16
2018-07-03T05:34:21.260Z,1008.14
2018-07-03T05:35:21.233Z,1008.19
2018-07-03T05:36:21.194Z,1008.22
2018-07-03T05:37:21.164Z,1008.19
2018-07-03T05:38:21.144Z,1008.21
2018-07-03T05:39:21.101Z,1008.23
2018-07-03T05:40:21.068Z,1008.25
2018-07-03T05:41:21.041Z,1008.23
2018-07-03T05:42:21.004Z,1008.20
2018-07-03T05:43:20.978Z,1008.22
2018-07-03T05:44:20.949Z,1008.36
2018-07-03T05:45:20.915Z,1008.30
2018-07-03T05:46:20.881Z,1008.38
2018-07-03T05:47:20.848Z,1008.33
2018-07-03T05:48:20.818Z,1008.40
2018-07-03T05:49:20.786Z,1008.36
2018-07-03T05:50:20.850Z,1008.43
2018-07-03T05:51:20.730Z,1008.42
2018-07-03T05:52:20.850Z,1008.40
2018-07-03T05:53:20.851Z,1008.36
2018-07-03T05:54:20.633Z,1008.35
2018-07-03T05:55:20.595Z,1008.33
2018-07-03T05:56:20.583Z,1008.32
2018-07-03T05:57:20.547Z,1008.32
2018-07-03T05:58:20.555Z,1008.42
2018-07-03T05:59:20.468Z,1008.39
2018-07-03T06:00:20.446Z,1008.40
2018-07-03T06:01:20.413Z,1008.41
2018-07-03T06:02:20.381Z,1008.40
2018-07-03T06:03:20.366Z,1008.30
2018-07-03T06:04:20.324Z,1008.36
2018-07-03T06:05:20.286Z,1008.39
2018-07-03T06:06:20.258Z,1008.39
2018-07-03T06:07:20.225Z,1008.35
2018-07-03T06:08:20.204Z,1008.36
2018-07-03T06:09:20.278Z,1008.41
2018-07-03T06:10:20.133Z,1008.45
2018-07-03T06:11:20.103Z,1008.41
2018-07-03T06:12:20.071Z,1008.48
2018-07-03T06:13:20.047Z,1008.44
2018-07-03T06:14:20.010Z,1008.47
2018-07-03T06:15:19.977Z,1008.42
2018-07-03T06:16:19.951Z,1008.39
2018-07-03T06:17:19.923Z,1008.39
2018-07-03T06:18:19.892Z,1008.47
2018-07-03T06:19:19.860Z,1008.45
2018-07-03T06:20:19.837Z,1008.47
2018-07-03T06:21:19.798Z,1008.40
2018-07-03T06:22:19.771Z,1008.47
2018-07-03T06:23:19.738Z,1008.45
2018-07-03T06:24:19.702Z,1008.51
2018-07-03T06:25:19.676Z,1008.46
2018-07-03T06:26:19.654Z,1008.45
2018-07-03T06:27:19.613Z,1008.46
2018-07-03T06:28:19.591Z,1008.42
2018-07-03T06:29:19.549Z,1008.38
2018-07-03T06:30:19.522Z,1008.39
2018-07-03T06:31:19.488Z,1008.34
2018-07-03T06:32:19.459Z,1008.40
2018-07-03T06:33:19.430Z,1008.40
2018-07-03T06:34:19.412Z,1008.42
2018-07-03T06:35:19.368Z,1008.41
2018-07-03T06:36:19.343Z,1008.37
2018-07-03T06:37:19.347Z,1008.36
2018-07-03T06:38:19.284Z,1008.40
2018-07-03T06:39:19.252Z,1008.32
2018-07-03T06:40:19.224Z,1008.38
2018-07-03T06:41:19.196Z,1008.34
2018-07-03T06:42:19.166Z,1008.39
2018-07-03T06:43:19.131Z,1008.39
2018-07-03T06:44:19.106Z,1008.37
2018-07-03T06:45:19.071Z,1008.29
2018-07-03T06:46:19.052Z,1008.31
2018-07-03T06:47:19.056Z,1008.30
2018-07-03T06:48:18.985Z,1008.29
2018-07-03T06:49:18.955Z,1008.36
2018-07-03T06:50:18.924Z,1008.34
2018-07-03T06:51:18.899Z,1008.28
2018-07-03T06:52:18.866Z,1008.30
2018-07-03T06:53:18.839Z,1008.30
2018-07-03T06:54:18.810Z,1008.34
2018-07-03T06:55:18.786Z,1008.33
2018-07-03T06:56:18.749Z,1008.31
2018-07-03T06:57:18.721Z,1008.33
2018-07-03T06:58:18.692Z,1008.34
2018-07-03T06:59:18.664Z,1008.26
2018-07-03T07:00:18.629Z,1008.29
2018-07-03T07:01:18.609Z,1008.27
2018-07-03T07:02:18.576Z,1008.24
2018-07-03T07:03:18.552Z,1008.28
2018-07-03T07:04:18.511Z,1008.28
2018-07-03T07:05:18.492Z,1008.32
2018-07-03T07:06:18.459Z,1008.30
2018-07-03T07:07:18.430Z,1008.32
2018-07-03T07:08:18.407Z,1008.29
2018-07-03T07:09:18.460Z,1008.23
2018-07-03T07:10:18.344Z,1008.22
2018-07-03T07:11:18.312Z,1008.21
2018-07-03T07:12:18.287Z,1008.22
2018-07-03T07:13:18.801Z,1008.19
2018-07-03T07:14:18.224Z,1008.24
2018-07-03T07:15:18.200Z,1008.17
2018-07-03T07:16:18.182Z,1008.22
2018-07-03T07:17:18.144Z,1008.17
2018-07-03T07:18:18.115Z,1008.20
2018-07-03T07:19:18.087Z,1008.24
2018-07-03T07:20:18.060Z,1008.14
2018-07-03T07:21:18.021Z,1008.21
2018-07-03T07:22:18.000Z,1008.19
2018-07-03T07:23:18.019Z,1008.19
2018-07-03T07:24:17.944Z,1008.21
2018-07-03T07:25:17.923Z,1008.16
2018-07-03T07:26:17.879Z,1008.17
2018-07-03T07:27:17.857Z,1008.19
2018-07-03T07:28:17.830Z,1008.18
2018-07-03T07:29:17.809Z,1008.17
2018-07-03T07:30:17.772Z,1008.15
2018-07-03T07:31:17.746Z,1008.14
2018-07-03T07:32:17.715Z,1008.07
2018-07-03T07:33:17.685Z,1008.03
2018-07-03T07:34:17.657Z,1008.10
2018-07-03T07:35:17.631Z,1008.05
2018-07-03T07:36:17.596Z,1008.09
2018-07-03T07:37:17.576Z,1008.03
2018-07-03T07:38:17.543Z,1008.09
2018-07-03T07:39:17.523Z,1008.09
2018-07-03T07:40:17.491Z,1008.06
2018-07-03T07:41:17.464Z,1008.08
2018-07-03T07:42:17.435Z,1008.07
2018-07-03T07:43:17.413Z,1008.07
2018-07-03T07:44:17.376Z,1008.04
2018-07-03T07:45:17.357Z,1008.11
2018-07-03T07:46:17.322Z,1008.10
2018-07-03T07:47:17.294Z,1008.08
2018-07-03T07:48:17.268Z,1008.06
2018-07-03T07:49:17.244Z,1008.09
2018-07-03T07:50:17.222Z,1008.10
2018-07-03T07:51:17.185Z,1008.07
2018-07-03T07:52:17.162Z,1008.06
2018-07-03T07:53:17.132Z,1007.99
2018-07-03T07:54:17.107Z,1008.10
2018-07-03T07:55:17.076Z,1008.03
2018-07-03T07:56:17.057Z,1007.96
2018-07-03T07:57:17.019Z,1008.05
2018-07-03T07:58:16.991Z,1008.04
2018-07-03T07:59:16.969Z,1008.01
2018-07-03T08:00:16.970Z,1008.02
2018-07-03T08:01:16.915Z,1008.02
2018-07-03T08:02:16.889Z,1008.04
2018-07-03T08:03:16.865Z,1008.09
2018-07-03T08:04:16.860Z,1008.03
2018-07-03T08:05:16.807Z,1007.95
2018-07-03T08:06:16.781Z,1008.06
2018-07-03T08:07:16.766Z,1008.01
2018-07-03T08:08:16.741Z,1008.04
2018-07-03T08:09:16.700Z,1008.03
2018-07-03T08:10:16.696Z,1008.02
2018-07-03T08:11:16.796Z,1008.03
2018-07-03T08:12:16.796Z,1008.05
2018-07-03T08:13:16.604Z,1008.04
2018-07-03T08:14:16.570Z,1008.03
2018-07-03T08:15:16.543Z,1008.00
2018-07-03T08:16:16.527Z,1008.06
2018-07-03T08:17:16.495Z,1008.01
2018-07-03T08:18:16.468Z,1008.05
2018-07-03T08:19:16.496Z,1008.05
2018-07-03T08:20:16.419Z,1008.03
2018-07-03T08:21:16.390Z,1008.03
2018-07-03T08:22:16.371Z,1008.04
2018-07-03T08:23:16.340Z,1008.05
2018-07-03T08:24:16.315Z,1008.10
2018-07-03T08:25:16.290Z,1008.04
2018-07-03T08:26:16.264Z,1008.05
2018-07-03T08:27:16.238Z,1007.99
2018-07-03T08:28:16.217Z,1008.07
2018-07-03T08:29:16.187Z,1008.06
2018-07-03T08:30:16.166Z,1008.07
2018-07-03T08:31:16.143Z,1008.04
2018-07-03T08:32:16.127Z,1008.04
2018-07-03T08:33:16.089Z,1008.08
2018-07-03T08:34:16.058Z,1008.12
2018-07-03T08:35:16.472Z,1008.05
2018-07-03T08:36:16.038Z,1008.06
2018-07-03T08:37:15.987Z,1008.04
2018-07-03T08:38:15.965Z,1008.02
2018-07-03T08:39:15.939Z,1008.02
2018-07-03T08:40:15.918Z,1007.97
2018-07-03T08:41:15.888Z,1008.01
2018-07-03T08:42:15.868Z,1007.92
2018-07-03T08:43:15.845Z,1007.97
2018-07-03T08:44:15.819Z,1007.93
2018-07-03T08:45:15.792Z,1007.95
2018-07-03T08:46:15.768Z,1008.01
2018-07-03T08:47:15.741Z,1008.02
2018-07-03T08:48:15.717Z,1007.99
2018-07-03T08:49:15.893Z,1007.98
2018-07-03T08:50:15.668Z,1007.94
2018-07-03T08:51:15.647Z,1007.96
2018-07-03T08:52:15.615Z,1007.90
2018-07-03T08:53:15.595Z,1007.96
2018-07-03T08:54:16.115Z,1007.97
2018-07-03T08:55:16.113Z,1007.92
2018-07-03T08:56:15.525Z,1007.96
2018-07-03T08:57:15.493Z,1007.97
2018-07-03T08:58:15.529Z,1007.97
2018-07-03T08:59:15.452Z,1008.00
2018-07-03T09:00:15.427Z,1008.00
2018-07-03T09:01:15.401Z,1007.97
2018-07-03T09:02:15.376Z,1007.96
2018-07-03T09:03:15.352Z,1007.97
2018-07-03T09:04:15.326Z,1007.97
2018-07-03T09:05:15.304Z,1007.98
2018-07-03T09:06:15.280Z,1007.91
2018-07-03T09:07:15.255Z,1007.96
2018-07-03T09:08:15.235Z,1007.98
2018-07-03T09:09:15.225Z,1008.00
2018-07-03T09:10:15.177Z,1008.02
2018-07-03T09:11:15.161Z,1008.00
2018-07-03T09:12:15.135Z,1008.03
2018-07-03T09:13:15.112Z,1008.01
2018-07-03T09:14:15.093Z,1008.08
2018-07-03T09:15:15.068Z,1008.03
2018-07-03T09:16:15.034Z,1008.03
2018-07-03T09:17:15.017Z,1008.06
2018-07-03T09:18:15.047Z,1008.03
2018-07-03T09:19:14.968Z,1008.04
2018-07-03T09:20:14.941Z,1008.00
2018-07-03T09:21:14.918Z,1008.01
2018-07-03T09:22:15.078Z,1008.02
2018-07-03T09:23:14.875Z,1008.01
2018-07-03T09:24:14.845Z,1007.97
2018-07-03T09:25:14.826Z,1007.93
2018-07-03T09:26:14.800Z,1008.01
2018-07-03T09:27:14.803Z,1007.98
2018-07-03T09:28:14.749Z,1007.92
2018-07-03T09:29:14.722Z,1008.01
2018-07-03T09:30:14.703Z,1007.99
2018-07-03T09:31:14.684Z,1007.97
2018-07-03T09:32:14.654Z,1007.91
2018-07-03T09:33:14.626Z,1007.96
2018-07-03T09:34:14.606Z,1007.94
2018-07-03T09:35:14.582Z,1007.88
2018-07-03T09:36:14.583Z,1007.94
2018-07-03T09:37:14.539Z,1007.89
2018-07-03T09:38:14.510Z,1007.89
2018-07-03T09:39:14.484Z,1007.91
2018-07-03T09:40:14.458Z,1007.94
2018-07-03T09:41:14.434Z,1007.91
2018-07-03T09:42:14.410Z,1007.88
2018-07-03T09:43:14.403Z,1007.92
2018-07-03T09:44:14.412Z,1007.87
2018-07-03T09:45:14.343Z,1007.83
2018-07-03T09:46:14.318Z,1007.87
2018-07-03T09:47:14.291Z,1007.82
2018-07-03T09:48:14.268Z,1007.79
2018-07-03T09:49:14.243Z,1007.86
2018-07-03T09:50:14.230Z,1007.81
2018-07-03T09:51:14.201Z,1007.84
2018-07-03T09:52:14.174Z,1007.74
2018-07-03T09:53:14.156Z,1007.81
2018-07-03T09:54:14.254Z,1007.80
2018-07-03T09:55:14.106Z,1007.78
2018-07-03T09:56:14.086Z,1007.78
2018-07-03T09:57:14.073Z,1007.79
2018-07-03T09:58:14.037Z,1007.79
2018-07-03T09:59:14.015Z,1007.81
2018-07-03T10:00:13.991Z,1007.84
2018-07-03T10:01:13.966Z,1007.85
2018-07-03T10:02:13.946Z,1007.83
2018-07-03T10:03:13.922Z,1007.84
2018-07-03T10:04:13.897Z,1007.83
2018-07-03T10:05:13.872Z,1007.82
2018-07-03T10:06:13.943Z,1007.82
2018-07-03T10:07:13.830Z,1007.83
2018-07-03T10:08:13.807Z,1007.88
2018-07-03T10:09:13.790Z,1007.79
2018-07-03T10:10:13.759Z,1007.74
2018-07-03T10:11:14.645Z,1007.78
2018-07-03T10:12:13.716Z,1007.85
2018-07-03T10:13:13.694Z,1007.78
2018-07-03T10:14:13.671Z,1007.85
2018-07-03T10:15:13.649Z,1007.79
2018-07-03T10:16:13.636Z,1007.82
2018-07-03T10:17:13.601Z,1007.90
2018-07-03T10:18:13.579Z,1007.90
2018-07-03T10:19:13.803Z,1007.87
2018-07-03T10:20:13.533Z,1007.78
2018-07-03T10:21:13.510Z,1007.80
2018-07-03T10:22:13.497Z,1007.84
2018-07-03T10:23:13.459Z,1007.79
2018-07-03T10:24:13.444Z,1007.82
2018-07-03T10:25:13.424Z,1007.84
2018-07-03T10:26:14.036Z,1007.82
2018-07-03T10:27:13.374Z,1007.84
2018-07-03T10:28:13.354Z,1007.88
2018-07-03T10:29:13.326Z,1007.91
2018-07-03T10:30:13.308Z,1007.82
2018-07-03T10:31:13.289Z,1007.85
2018-07-03T10:32:13.262Z,1007.84
2018-07-03T10:33:13.241Z,1007.81
2018-07-03T10:34:13.224Z,1007.84
2018-07-03T10:35:13.192Z,1007.82
2018-07-03T10:36:13.169Z,1007.82
2018-07-03T10:37:13.147Z,1007.86
2018-07-03T10:38:13.127Z,1007.84
2018-07-03T10:39:13.104Z,1007.76
2018-07-03T10:40:13.076Z,1007.86
2018-07-03T10:41:13.315Z,1007.82
2018-07-03T10:42:13.035Z,1007.79
2018-07-03T10:43:13.034Z,1007.78
2018-07-03T10:44:12.991Z,1007.72
2018-07-03T10:45:12.970Z,1007.70
2018-07-03T10:46:12.947Z,1007.74
2018-07-03T10:47:12.918Z,1007.64
2018-07-03T10:48:12.899Z,1007.74
2018-07-03T10:49:12.878Z,1007.68
2018-07-03T10:50:12.864Z,1007.68
2018-07-03T10:51:12.836Z,1007.69
2018-07-03T10:52:12.809Z,1007.70
2018-07-03T10:53:12.789Z,1007.64
2018-07-03T10:54:12.784Z,1007.67
2018-07-03T10:55:12.745Z,1007.68
2018-07-03T10:56:12.725Z,1007.66
2018-07-03T10:57:12.699Z,1007.61
2018-07-03T10:58:12.707Z,1007.67
2018-07-03T10:59:12.658Z,1007.64
2018-07-03T11:00:12.638Z,1007.65
2018-07-03T11:01:12.606Z,1007.66
2018-07-03T11:02:12.591Z,1007.63
2018-07-03T11:03:12.569Z,1007.60
2018-07-03T11:04:12.548Z,1007.61
2018-07-03T11:05:12.524Z,1007.63
2018-07-03T11:06:12.504Z,1007.64
2018-07-03T11:07:12.478Z,1007.55
2018-07-03T11:08:12.458Z,1007.51
2018-07-03T11:09:12.442Z,1007.57
2018-07-03T11:10:12.414Z,1007.57
2018-07-03T11:11:12.395Z,1007.50
2018-07-03T11:12:12.371Z,1007.60
2018-07-03T11:13:12.348Z,1007.58
2018-07-03T11:14:12.326Z,1007.63
2018-07-03T11:15:12.300Z,1007.58
2018-07-03T11:16:12.283Z,1007.59
2018-07-03T11:17:12.275Z,1007.57
2018-07-03T11:18:12.246Z,1007.60
2018-07-03T11:19:12.218Z,1007.57
2018-07-03T11:20:12.277Z,1007.59
2018-07-03T11:21:12.175Z,1007.60
2018-07-03T11:22:12.157Z,1007.59
2018-07-03T11:23:12.130Z,1007.59
2018-07-03T11:24:12.112Z,1007.65
2018-07-03T11:25:12.092Z,1007.61
2018-07-03T11:26:12.071Z,1007.62
2018-07-03T11:27:12.043Z,1007.61
2018-07-03T11:28:12.025Z,1007.55
2018-07-03T11:29:12.005Z,1007.57
2018-07-03T11:30:11.985Z,1007.50
2018-07-03T11:31:11.966Z,1007.54
2018-07-03T11:32:11.942Z,1007.51
2018-07-03T11:33:11.921Z,1007.46
2018-07-03T11:34:11.896Z,1007.44
2018-07-03T11:35:11.880Z,1007.46
2018-07-03T11:36:11.858Z,1007.39
2018-07-03T11:37:11.845Z,1007.34
2018-07-03T11:38:11.819Z,1007.39
2018-07-03T11:39:11.790Z,1007.40
2018-07-03T11:40:11.775Z,1007.39
2018-07-03T11:41:11.757Z,1007.40
2018-07-03T11:42:11.737Z,1007.40
2018-07-03T11:43:11.742Z,1007.40
2018-07-03T11:44:11.690Z,1007.44
2018-07-03T11:45:11.674Z,1007.41
2018-07-03T11:46:11.651Z,1007.33
2018-07-03T11:47:11.639Z,1007.40
2018-07-03T11:48:11.614Z,1007.39
2018-07-03T11:49:11.593Z,1007.34
2018-07-03T11:50:11.789Z,1007.40
2018-07-03T11:51:11.558Z,1007.40
2018-07-03T11:52:11.541Z,1007.42
2018-07-03T11:53:11.522Z,1007.42
2018-07-03T11:54:11.497Z,1007.37
2018-07-03T11:55:11.484Z,1007.37
2018-07-03T11:56:11.777Z,1007.40
2018-07-03T11:57:11.441Z,1007.31
2018-07-03T11:58:11.430Z,1007.35
2018-07-03T11:59:11.398Z,1007.39
2018-07-03T12:00:11.385Z,1007.40
2018-07-03T12:01:11.387Z,1007.36
2018-07-03T12:02:11.343Z,1007.39
2018-07-03T12:03:11.327Z,1007.40
2018-07-03T12:04:11.307Z,1007.38
2018-07-03T12:05:11.289Z,1007.35